createdAt,value
2022-09-09T00:00:38.095Z,98489.44
2022-09-09T00:03:46.337Z,98483.19
2022-09-09T00:06:36.874Z,98481.28
2022-09-09T00:09:27.538Z,98485.63
2022-09-09T00:12:19.151Z,98482.94
2022-09-09T00:15:21.047Z,98483.72
2022-09-09T00:18:25.553Z,98483.28
2022-09-09T00:21:18.860Z,98480.06
2022-09-09T00:24:17.200Z,98474.97
2022-09-09T00:27:08.089Z,98483.72
2022-09-09T00:30:15.246Z,98483.03
2022-09-09T00:33:13.984Z,98480.25
2022-09-09T00:36:00.816Z,98471.50
2022-09-09T00:38:50.370Z,98481.28
2022-09-09T00:42:09.396Z,98482.06
2022-09-09T00:45:13.215Z,98476.28
2022-09-09T00:48:03.949Z,98478.25
2022-09-09T00:51:01.870Z,98477.81
2022-09-09T00:54:08.341Z,98481.81
2022-09-09T00:57:15.207Z,98477.91
2022-09-09T01:00:21.385Z,98476.78
2022-09-09T01:03:15.977Z,98483.91
2022-09-09T01:06:16.428Z,98485.88
2022-09-09T01:09:25.042Z,98478.78
2022-09-09T01:12:16.827Z,98485.44
2022-09-09T01:15:18.894Z,98485.88
2022-09-09T01:18:14.846Z,98487.53
2022-09-09T01:21:34.186Z,98489.53
2022-09-09T01:24:48.999Z,98500.63
2022-09-09T01:27:49.168Z,98485.22
2022-09-09T01:30:39.116Z,98491.94
2022-09-09T01:33:26.823Z,98480.09
2022-09-09T01:36:15.930Z,98483.28
2022-09-09T01:39:06.312Z,98477.31
2022-09-09T01:41:54.127Z,98477.38
2022-09-09T01:44:39.815Z,98472.19
2022-09-09T01:47:26.394Z,98469.88
2022-09-09T01:50:21.828Z,98470.28
2022-09-09T01:53:07.827Z,98472.28
2022-09-09T01:56:05.899Z,98472.38
2022-09-09T01:59:16.922Z,98467.94
2022-09-09T02:02:19.933Z,98467.94
2022-09-09T02:05:33.009Z,98466.06
2022-09-09T02:08:30.020Z,98466.84
2022-09-09T02:11:24.096Z,98472.81
2022-09-09T02:14:26.176Z,98464.13
2022-09-09T02:17:15.341Z,98467.25
2022-09-09T02:20:18.057Z,98473.25
2022-09-09T02:23:16.383Z,98468.91
2022-09-09T02:26:05.142Z,98470.13
2022-09-09T02:28:52.266Z,98475.22
2022-09-09T02:31:39.241Z,98473.69
2022-09-09T02:34:32.851Z,98475.94
2022-09-09T02:37:21.723Z,98474.44
2022-09-09T02:40:13.366Z,98472.88
2022-09-09T02:43:02.139Z,98473.69
2022-09-09T02:45:54.978Z,98477.47
2022-09-09T02:48:57.631Z,98478.97
2022-09-09T02:52:03.220Z,98479.75
2022-09-09T02:54:50.670Z,98480.59
2022-09-09T02:57:38.324Z,98473.16
2022-09-09T03:00:27.258Z,98477.56
2022-09-09T03:03:17.045Z,98475.22
2022-09-09T03:06:02.523Z,98474.44
2022-09-09T03:08:49.789Z,98475.31
2022-09-09T03:11:40.593Z,98476.19
2022-09-09T03:14:26.887Z,98480.25
2022-09-09T03:17:12.923Z,98480.25
2022-09-09T03:20:05.446Z,98488.94
2022-09-09T03:22:51.329Z,98479.50
2022-09-09T03:25:37.697Z,98475.53
2022-09-09T03:28:24.297Z,98480.25
2022-09-09T03:31:12.702Z,98480.63
2022-09-09T03:34:00.346Z,98481.84
2022-09-09T03:36:50.286Z,98473.19
2022-09-09T03:39:35.632Z,98477.09
2022-09-09T03:42:21.759Z,98476.28
2022-09-09T03:45:11.788Z,98469.16
2022-09-09T03:48:01.836Z,98481.03
2022-09-09T03:50:50.818Z,98476.31
2022-09-09T03:53:39.047Z,98470.72
2022-09-09T03:56:25.506Z,98468.22
2022-09-09T03:59:11.904Z,98471.09
2022-09-09T04:01:58.451Z,98474.09
2022-09-09T04:04:43.771Z,98467.25
2022-09-09T04:07:29.725Z,98474.38
2022-09-09T04:10:16.795Z,98476.69
2022-09-09T04:13:04.498Z,98471.94
2022-09-09T04:15:55.418Z,98472.38
2022-09-09T04:18:42.046Z,98467.97
2022-09-09T04:21:27.625Z,98470.66
2022-09-09T04:24:13.186Z,98465.00
2022-09-09T04:26:59.945Z,98465.44
2022-09-09T04:29:46.061Z,98472.56
2022-09-09T04:32:34.276Z,98466.06
2022-09-09T04:35:21.135Z,98471.50
2022-09-09T04:38:10.529Z,98471.50
2022-09-09T04:40:58.104Z,98477.75
2022-09-09T04:43:44.380Z,98474.19
2022-09-09T04:46:32.350Z,98480.50
2022-09-09T04:49:17.432Z,98471.78
2022-09-09T04:52:04.313Z,98476.97
2022-09-09T04:54:52.168Z,98476.88
2022-09-09T04:57:37.548Z,98480.09
2022-09-09T05:00:22.667Z,98477.66
2022-09-09T05:03:09.869Z,98479.66
2022-09-09T05:06:05.170Z,98485.97
2022-09-09T05:08:50.703Z,98487.97
2022-09-09T05:11:39.778Z,98475.78
2022-09-09T05:14:31.156Z,98481.75
2022-09-09T05:17:18.930Z,98473.06
2022-09-09T05:20:09.645Z,98487.72
2022-09-09T05:22:56.309Z,98492.91
2022-09-09T05:25:44.596Z,98489.34
2022-09-09T05:28:30.226Z,98491.00
2022-09-09T05:31:18.585Z,98502.09
2022-09-09T05:34:07.487Z,98495.09
2022-09-09T05:36:54.731Z,98502.63
2022-09-09T05:39:41.705Z,98506.19
2022-09-09T05:42:31.680Z,98505.06
2022-09-09T05:45:17.224Z,98516.13
2022-09-09T05:48:02.935Z,98520.09
2022-09-09T05:50:54.205Z,98517.00
2022-09-09T05:53:40.233Z,98525.31
2022-09-09T05:56:28.676Z,98530.44
2022-09-09T05:59:15.967Z,98522.53
2022-09-09T06:02:01.629Z,98527.31
2022-09-09T06:04:55.650Z,98531.31
2022-09-09T06:07:45.715Z,98532.50
2022-09-09T06:10:32.027Z,98527.38
2022-09-09T06:13:17.431Z,98530.50
2022-09-09T06:16:03.514Z,98524.59
2022-09-09T06:18:50.147Z,98524.28
2022-09-09T06:21:38.056Z,98525.75
2022-09-09T06:24:26.040Z,98526.53
2022-09-09T06:27:11.861Z,98530.50
2022-09-09T06:29:57.011Z,98524.19
2022-09-09T06:32:43.848Z,98522.63
2022-09-09T06:35:29.699Z,98532.91
2022-09-09T06:38:15.276Z,98525.06
2022-09-09T06:41:02.907Z,98527.38
2022-09-09T06:43:49.211Z,98532.91
2022-09-09T06:46:36.776Z,98527.06
2022-09-09T06:49:22.889Z,98533.03
2022-09-09T06:52:10.403Z,98516.38
2022-09-09T06:54:56.497Z,98526.69
2022-09-09T06:57:42.148Z,98529.47
2022-09-09T07:00:33.585Z,98521.81
2022-09-09T07:03:19.065Z,98525.06
2022-09-09T07:06:04.976Z,98521.94
2022-09-09T07:08:57.391Z,98524.28
2022-09-09T07:11:51.756Z,98528.53
2022-09-09T07:14:39.023Z,98525.81
2022-09-09T07:17:29.302Z,98517.50
2022-09-09T07:20:16.444Z,98515.50
2022-09-09T07:23:01.916Z,98515.78
2022-09-09T07:25:48.549Z,98507.13
2022-09-09T07:28:35.766Z,98513.09
2022-09-09T07:31:27.607Z,98513.03
2022-09-09T07:34:13.893Z,98512.56
2022-09-09T07:37:00.179Z,98512.50
2022-09-09T07:39:46.205Z,98512.50
2022-09-09T07:42:32.530Z,98515.19
2022-09-09T07:45:17.876Z,98519.09
2022-09-09T07:48:04.166Z,98519.44
2022-09-09T07:50:49.466Z,98521.00
2022-09-09T07:53:37.196Z,98526.88
2022-09-09T07:56:24.251Z,98538.75
2022-09-09T07:59:11.338Z,98540.75
2022-09-09T08:01:59.492Z,98541.53
2022-09-09T08:04:48.421Z,98535.72
2022-09-09T08:07:35.415Z,98537.28
2022-09-09T08:10:20.560Z,98532.84
2022-09-09T08:13:17.918Z,98539.56
2022-09-09T08:16:09.517Z,98531.22
2022-09-09T08:18:56.104Z,98528.78
2022-09-09T08:21:42.193Z,98530.34
2022-09-09T08:24:28.336Z,98534.00
2022-09-09T08:27:13.958Z,98539.88
2022-09-09T08:29:59.961Z,98545.00
2022-09-09T08:32:47.257Z,98541.03
2022-09-09T08:35:34.849Z,98538.56
2022-09-09T08:38:22.131Z,98544.91
2022-09-09T08:41:41.309Z,98546.47
2022-09-09T08:44:56.917Z,98544.13
2022-09-09T08:47:48.117Z,98544.91
2022-09-09T08:50:39.680Z,98555.56
2022-09-09T08:53:45.634Z,98553.13
2022-09-09T08:56:33.719Z,98552.78
2022-09-09T08:59:20.504Z,98561.91
2022-09-09T09:02:21.650Z,98564.75
2022-09-09T09:05:34.148Z,98570.22
2022-09-09T09:08:23.580Z,98564.69
2022-09-09T09:11:09.480Z,98574.56
2022-09-09T09:14:06.584Z,98580.53
2022-09-09T09:17:04.641Z,98570.22
2022-09-09T09:19:51.467Z,98569.00
2022-09-09T09:22:47.533Z,98568.22
2022-09-09T09:25:42.259Z,98570.22
2022-09-09T09:28:32.529Z,98570.59
2022-09-09T09:31:27.777Z,98565.81
2022-09-09T09:34:13.467Z,98570.91
2022-09-09T09:37:02.837Z,98562.59
2022-09-09T09:40:06.518Z,98565.34
2022-09-09T09:42:57.271Z,98561.38
2022-09-09T09:46:06.971Z,98558.97
2022-09-09T09:49:06.474Z,98559.72
2022-09-09T09:51:53.628Z,98563.72
2022-09-09T09:54:43.243Z,98552.63
2022-09-09T09:57:32.211Z,98554.97
2022-09-09T10:00:24.298Z,98549.41
2022-09-09T10:03:38.680Z,98543.09
2022-09-09T10:06:36.055Z,98547.88
2022-09-09T10:09:29.985Z,98539.13
2022-09-09T10:12:49.935Z,98546.22
2022-09-09T10:16:10.850Z,98539.88
2022-09-09T10:19:00.080Z,98532.00
2022-09-09T10:21:55.636Z,98544.66
2022-09-09T10:24:47.336Z,98530.34
2022-09-09T10:28:00.581Z,98535.13
2022-09-09T10:31:06.137Z,98527.22
2022-09-09T10:34:01.830Z,98530.34
2022-09-09T10:36:51.984Z,98523.25
2022-09-09T10:39:43.008Z,98510.56
2022-09-09T10:42:32.538Z,98512.56
2022-09-09T10:45:45.681Z,98513.34
2022-09-09T10:48:58.962Z,98510.56
2022-09-09T10:51:56.312Z,98503.84
2022-09-09T10:55:04.044Z,98503.84
2022-09-09T10:57:55.310Z,98505.72
2022-09-09T11:00:57.447Z,98496.97
2022-09-09T11:03:49.377Z,98497.75
2022-09-09T11:06:43.681Z,98493.44
2022-09-09T11:09:34.343Z,98498.63
2022-09-09T11:12:21.413Z,98506.59
2022-09-09T11:15:20.097Z,98507.81
2022-09-09T11:18:11.064Z,98499.81
2022-09-09T11:21:02.746Z,98497.06
2022-09-09T11:23:57.109Z,98496.72
2022-09-09T11:26:58.530Z,98506.16
2022-09-09T11:30:38.108Z,98504.19
2022-09-09T11:33:53.396Z,98497.06
2022-09-09T11:36:47.744Z,98485.19
2022-09-09T11:39:47.571Z,98491.09
2022-09-09T11:42:33.107Z,98489.97
2022-09-09T11:45:30.262Z,98476.44
2022-09-09T11:48:33.686Z,98485.19
2022-09-09T11:51:22.045Z,98479.63
2022-09-09T11:54:31.160Z,98483.19
2022-09-09T11:57:49.482Z,98479.22
2022-09-09T12:00:42.927Z,98487.19
2022-09-09T12:03:51.392Z,98471.75
2022-09-09T12:06:51.850Z,98480.41
2022-09-09T12:09:49.540Z,98468.47
2022-09-09T12:12:43.161Z,98466.88
2022-09-09T12:15:30.346Z,98472.44
2022-09-09T12:18:23.620Z,98474.88
2022-09-09T12:21:17.775Z,98470.09
2022-09-09T12:24:19.290Z,98463.34
2022-09-09T12:27:29.843Z,98466.13
2022-09-09T12:30:17.084Z,98466.88
2022-09-09T12:33:14.293Z,98462.91
2022-09-09T12:36:01.679Z,98452.06
2022-09-09T12:38:48.048Z,98451.63
2022-09-09T12:41:33.415Z,98446.41
2022-09-09T12:44:18.803Z,98457.06
2022-09-09T12:47:05.037Z,98454.19
2022-09-09T12:49:51.926Z,98453.31
2022-09-09T12:52:39.930Z,98453.66
2022-09-09T12:55:37.885Z,98444.91
2022-09-09T12:58:23.693Z,98448.03
2022-09-09T13:01:22.589Z,98441.63
2022-09-09T13:04:22.961Z,98438.41
2022-09-09T13:07:11.043Z,98439.97
2022-09-09T13:09:56.772Z,98425.66
2022-09-09T13:12:43.787Z,98422.44
2022-09-09T13:15:30.831Z,98424.34
2022-09-09T13:18:16.271Z,98426.22
2022-09-09T13:21:01.900Z,98426.22
2022-09-09T13:23:53.229Z,98431.69
2022-09-09T13:29:25.355Z,98418.91
2022-09-09T13:32:18.282Z,98417.59
2022-09-09T13:35:04.247Z,98421.47
2022-09-09T13:37:49.898Z,98420.97
2022-09-09T13:40:35.533Z,98433.19
2022-09-09T13:43:24.126Z,98429.97
2022-09-09T13:46:31.256Z,98430.28
2022-09-09T13:49:16.542Z,98432.28
2022-09-09T13:52:25.281Z,98437.41
2022-09-09T13:55:11.142Z,98433.41
2022-09-09T13:58:04.195Z,98433.31
2022-09-09T14:00:50.951Z,98434.09
2022-09-09T14:03:36.151Z,98432.41
2022-09-09T14:06:22.975Z,98437.97
2022-09-09T14:09:12.541Z,98432.31
2022-09-09T14:11:58.780Z,98437.53
2022-09-09T14:14:44.055Z,98430.44
2022-09-09T14:17:32.229Z,98421.97
2022-09-09T14:20:18.711Z,98425.09
2022-09-09T14:23:04.092Z,98422.66
2022-09-09T14:25:50.091Z,98419.13
2022-09-09T14:28:54.397Z,98413.56
2022-09-09T14:31:41.300Z,98414.66
2022-09-09T14:34:26.909Z,98413.91
2022-09-09T14:37:12.532Z,98417.00
2022-09-09T14:39:58.801Z,98405.09
2022-09-09T14:42:44.210Z,98401.88
2022-09-09T14:45:29.529Z,98410.66
2022-09-09T14:48:16.350Z,98406.53
2022-09-09T14:51:17.292Z,98403.44
2022-09-09T14:54:03.576Z,98406.22
2022-09-09T14:56:49.239Z,98408.13
2022-09-09T14:59:35.470Z,98410.91
2022-09-09T15:02:22.839Z,98405.00
2022-09-09T15:05:09.512Z,98407.22
2022-09-09T15:07:54.918Z,98405.69
2022-09-09T15:10:40.749Z,98395.34
2022-09-09T15:13:26.804Z,98393.78
2022-09-09T15:16:17.242Z,98388.88
2022-09-09T15:19:03.682Z,98394.44
2022-09-09T15:21:48.856Z,98410.66
2022-09-09T15:24:34.640Z,98414.56
2022-09-09T15:27:20.052Z,98403.91
2022-09-09T15:30:06.052Z,98407.91
2022-09-09T15:32:53.969Z,98414.69
2022-09-09T15:35:41.372Z,98410.25
2022-09-09T15:38:27.962Z,98416.56
2022-09-09T15:41:15.005Z,98406.69
2022-09-09T15:44:04.197Z,98404.69
2022-09-09T15:46:51.211Z,98397.56
2022-09-09T15:49:36.636Z,98402.34
2022-09-09T15:52:21.953Z,98399.91
2022-09-09T15:55:09.249Z,98403.78
2022-09-09T15:57:56.058Z,98404.22
2022-09-09T16:00:41.628Z,98399.00
2022-09-09T16:03:26.958Z,98397.44
2022-09-09T16:06:12.670Z,98403.00
2022-09-09T16:08:59.357Z,98403.78
2022-09-09T16:11:45.424Z,98397.44
2022-09-09T16:14:37.985Z,98393.44
2022-09-09T16:17:23.446Z,98399.78
2022-09-09T16:20:09.719Z,98401.78
2022-09-09T16:22:54.994Z,98401.34
2022-09-09T16:25:44.338Z,98409.25
2022-09-09T16:28:30.537Z,98407.66
2022-09-09T16:31:19.177Z,98414.00
2022-09-09T16:34:04.960Z,98413.22
2022-09-09T16:36:50.541Z,98419.47
2022-09-09T16:39:36.749Z,98420.22
2022-09-09T16:42:22.082Z,98418.78
2022-09-09T16:45:07.928Z,98418.78
2022-09-09T16:47:53.688Z,98420.34
2022-09-09T16:50:40.251Z,98423.47
2022-09-09T16:53:26.283Z,98436.56
2022-09-09T16:56:21.238Z,98435.00
2022-09-09T16:59:09.534Z,98439.69
2022-09-09T17:01:55.501Z,98448.00
2022-09-09T17:04:41.827Z,98444.03
2022-09-09T17:07:27.106Z,98453.13
2022-09-09T17:10:12.682Z,98451.16
2022-09-09T17:12:58.439Z,98451.16
2022-09-09T17:15:43.897Z,98448.00
2022-09-09T17:18:29.889Z,98451.25
2022-09-09T17:21:19.307Z,98449.69
2022-09-09T17:24:05.466Z,98448.91
2022-09-09T17:26:50.710Z,98455.25
2022-09-09T17:29:36.949Z,98459.25
2022-09-09T17:32:22.254Z,98465.25
2022-09-09T17:35:07.823Z,98464.81
2022-09-09T17:37:55.560Z,98468.59
2022-09-09T17:40:40.770Z,98468.13
2022-09-09T17:43:26.008Z,98479.56
2022-09-09T17:46:23.198Z,98466.47
2022-09-09T17:49:11.580Z,98488.38
2022-09-09T17:51:57.541Z,98487.91
2022-09-09T17:54:42.928Z,98496.25
2022-09-09T17:57:29.213Z,98492.47
2022-09-09T18:00:15.136Z,98492.13
2022-09-09T18:03:05.620Z,98493.28
2022-09-09T18:05:51.257Z,98498.75
2022-09-09T18:08:37.184Z,98492.75
2022-09-09T18:11:24.669Z,98503.97
2022-09-09T18:14:13.305Z,98500.81
2022-09-09T18:17:01.458Z,98498.84
2022-09-09T18:19:46.580Z,98508.03
2022-09-09T18:22:34.144Z,98502.38
2022-09-09T18:25:19.545Z,98505.06
2022-09-09T18:28:05.512Z,98512.63
2022-09-09T18:30:50.995Z,98500.75
2022-09-09T18:33:41.978Z,98503.16
2022-09-09T18:36:34.140Z,98512.97
2022-09-09T18:39:21.117Z,98505.75
2022-09-09T18:42:06.817Z,98516.66
2022-09-09T18:44:52.430Z,98521.84
2022-09-09T18:47:37.829Z,98515.59
2022-09-09T18:50:23.589Z,98512.72
2022-09-09T18:53:11.121Z,98514.38
2022-09-09T18:56:06.784Z,98523.50
2022-09-09T18:58:53.316Z,98530.59
2022-09-09T19:01:38.977Z,98522.69
2022-09-09T19:04:25.516Z,98523.50
2022-09-09T19:07:11.568Z,98525.94
2022-09-09T19:09:57.144Z,98531.16
2022-09-09T19:12:42.828Z,98526.72
2022-09-09T19:15:29.700Z,98528.25
2022-09-09T19:18:15.343Z,98531.03
2022-09-09T19:21:17.379Z,98525.03
2022-09-09T19:24:06.546Z,98528.72
2022-09-09T19:26:55.526Z,98527.47
2022-09-09T19:29:42.957Z,98528.25
2022-09-09T19:32:53.321Z,98537.41
2022-09-09T19:35:34.628Z,98533.94
2022-09-09T19:38:20.125Z,98532.69
2022-09-09T19:41:17.548Z,98536.25
2022-09-09T19:44:06.393Z,98538.03
2022-09-09T19:46:52.125Z,98536.72
2022-09-09T19:49:37.943Z,98529.16
2022-09-09T19:52:23.374Z,98529.16
2022-09-09T19:55:09.115Z,98529.94
2022-09-09T19:57:54.989Z,98537.81
2022-09-09T20:00:40.775Z,98532.69
2022-09-09T20:03:26.140Z,98535.81
2022-09-09T20:06:14.468Z,98536.59
2022-09-09T20:09:00.491Z,98542.63
2022-09-09T20:11:47.839Z,98536.72
2022-09-09T20:14:38.676Z,98538.72
2022-09-09T20:17:25.069Z,98536.38
2022-09-09T20:20:10.790Z,98544.38
2022-09-09T20:22:57.443Z,98540.34
2022-09-09T20:25:43.525Z,98547.50
2022-09-09T20:28:29.881Z,98556.25
2022-09-09T20:31:22.456Z,98563.47
2022-09-09T20:34:11.121Z,98556.72
2022-09-09T20:36:57.647Z,98564.72
2022-09-09T20:39:43.009Z,98561.13
2022-09-09T20:42:28.356Z,98556.47
2022-09-09T20:45:16.222Z,98562.78
2022-09-09T20:48:01.545Z,98566.81
2022-09-09T20:50:46.723Z,98562.69
2022-09-09T20:53:33.312Z,98570.69
2022-09-09T20:56:20.388Z,98562.78
2022-09-09T20:59:07.601Z,98565.22
2022-09-09T21:01:54.387Z,98573.56
2022-09-09T21:04:40.130Z,98576.81
2022-09-09T21:07:25.238Z,98572.88
2022-09-09T21:10:11.164Z,98571.88
2022-09-09T21:12:56.304Z,98571.09
2022-09-09T21:15:42.361Z,98572.84
2022-09-09T21:18:28.991Z,98579.19
2022-09-09T21:21:15.319Z,98576.94
2022-09-09T21:24:00.874Z,98575.03
2022-09-09T21:26:46.007Z,98577.81
2022-09-09T21:29:31.538Z,98579.81
2022-09-09T21:32:18.028Z,98579.56
2022-09-09T21:35:03.960Z,98586.66
2022-09-09T21:37:49.638Z,98576.00
2022-09-09T21:40:38.637Z,98579.56
2022-09-09T21:43:24.016Z,98581.19
2022-09-09T21:46:10.948Z,98577.41
2022-09-09T21:48:58.238Z,98580.53
2022-09-09T21:51:43.748Z,98575.75
2022-09-09T21:54:32.080Z,98580.97
2022-09-09T21:57:20.672Z,98571.94
2022-09-09T22:00:12.742Z,98574.50
2022-09-09T22:03:02.945Z,98576.47
2022-09-09T22:05:53.242Z,98558.69
2022-09-09T22:08:39.255Z,98570.25
2022-09-09T22:11:25.331Z,98566.66
2022-09-09T22:14:10.578Z,98578.66
2022-09-09T22:16:56.066Z,98571.56
2022-09-09T22:19:41.076Z,98571.97
2022-09-09T22:22:26.587Z,98572.41
2022-09-09T22:25:12.192Z,98566.84
2022-09-09T22:27:57.337Z,98566.09
2022-09-09T22:30:43.153Z,98563.31
2022-09-09T22:33:28.752Z,98560.59
2022-09-09T22:36:14.165Z,98561.38
2022-09-09T22:39:00.056Z,98557.81
2022-09-09T22:41:45.328Z,98558.25
2022-09-09T22:44:31.848Z,98546.81
2022-09-09T22:47:17.370Z,98552.38
2022-09-09T22:50:02.686Z,98556.34
2022-09-09T22:52:48.019Z,98551.25
2022-09-09T22:55:33.540Z,98541.75
2022-09-09T22:58:18.877Z,98547.66
2022-09-09T23:01:20.738Z,98535.38
2022-09-09T23:04:05.872Z,98531.13
2022-09-09T23:06:51.030Z,98528.34
2022-09-09T23:09:36.162Z,98536.31
2022-09-09T23:12:22.463Z,98533.56
2022-09-09T23:15:10.207Z,98536.41
2022-09-09T23:17:55.772Z,98536.41
2022-09-09T23:20:41.671Z,98531.19
2022-09-09T23:23:28.097Z,98543.06
2022-09-09T23:26:20.924Z,98537.97
2022-09-09T23:29:06.345Z,98537.97
2022-09-09T23:31:51.685Z,98545.97
2022-09-09T23:34:37.934Z,98539.94
2022-09-09T23:37:23.163Z,98541.59
2022-09-09T23:40:08.712Z,98548.38
2022-09-09T23:42:55.315Z,98553.16
2022-09-09T23:45:41.174Z,98549.22
2022-09-09T23:48:28.217Z,98563.44
2022-09-09T23:51:17.954Z,98552.34
2022-09-09T23:54:05.254Z,98553.94
2022-09-09T23:56:50.758Z,98549.56
2022-09-09T23:59:35.995Z,98553.16
